Time;durP1;ratioP1;P1;durP2;ratioP2;P2;SDS_P1;SDS_P2;PMS_P1;PMS_P2;Temp;Humidity;BMP_temperature;BMP_pressure;BME280_temperature;BME280_humidity;BME280_pressure;Samples;Min_cycle;Max_cycle;Signal;HPM_P1;HPM_P2
2023/03/09 00:00:25;;;;;;;;;;;15.90;58.90;;;;;;10164154;28;93447;-76
2023/03/09 00:05:27;;;;;;;;;;;15.90;58.90;;;;;;10163921;28;93477;-78
2023/03/09 00:10:28;;;;;;;;;;;15.90;58.90;;;;;;10164886;28;93431;-76
2023/03/09 00:15:30;;;;;;;;;;;15.90;58.70;;;;;;10147676;28;93253;-76
2023/03/09 00:20:32;;;;;;;;;;;15.80;58.70;;;;;;10152047;28;93726;-75
2023/03/09 00:25:34;;;;;;;;;;;15.80;58.60;;;;;;10168954;28;95892;-75
2023/03/09 00:30:36;;;;;;;;;;;15.80;58.50;;;;;;10171512;28;92778;-75
2023/03/09 00:35:37;;;;;;;;;;;15.70;58.40;;;;;;10170415;28;93468;-76
2023/03/09 00:40:39;;;;;;;;;;;15.70;58.40;;;;;;10170256;28;93715;-75
2023/03/09 00:45:41;;;;;;;;;;;15.70;58.40;;;;;;10170624;28;92465;-76
2023/03/09 00:50:42;;;;;;;;;;;15.70;58.40;;;;;;10171313;28;94086;-75
2023/03/09 00:55:44;;;;;;;;;;;15.70;58.40;;;;;;10170166;28;93671;-75
2023/03/09 01:00:46;;;;;;;;;;;15.70;58.20;;;;;;10172127;28;93505;-75
2023/03/09 01:05:48;;;;;;;;;;;15.70;58.30;;;;;;10169810;28;94541;-75
2023/03/09 01:10:50;;;;;;;;;;;15.70;58.00;;;;;;10170962;28;94482;-76
2023/03/09 01:15:52;;;;;;;;;;;15.70;57.80;;;;;;10166801;28;96522;-75
2023/03/09 01:20:54;;;;;;;;;;;15.70;58.70;;;;;;10169592;28;93726;-74
2023/03/09 01:25:56;;;;;;;;;;;15.70;57.40;;;;;;10169164;28;92413;-75
2023/03/09 01:30:58;;;;;;;;;;;15.70;57.50;;;;;;10170049;28;94841;-75
2023/03/09 01:35:59;;;;;;;;;;;15.70;57.00;;;;;;10167743;28;93734;-76
2023/03/09 01:41:01;;;;;;;;;;;15.70;56.90;;;;;;10169297;28;93301;-76
2023/03/09 01:46:21;;;;;;;;;;;15.70;57.00;;;;;;10168002;28;92540;-76
2023/03/09 01:51:29;;;;;;;;;;;15.60;56.90;;;;;;10169664;28;92229;-76
2023/03/09 01:56:31;;;;;;;;;;;15.60;57.10;;;;;;10168771;28;93395;-75
2023/03/09 02:01:33;;;;;;;;;;;15.60;57.20;;;;;;10167824;28;93379;-75
2023/03/09 02:06:35;;;;;;;;;;;15.60;57.40;;;;;;10164917;28;96160;-76
2023/03/09 02:11:38;;;;;;;;;;;15.60;57.40;;;;;;10168362;28;94452;-75
2023/03/09 02:16:40;;;;;;;;;;;15.50;57.30;;;;;;10134582;28;94855;-76
2023/03/09 02:21:50;;;;;;;;;;;15.50;57.30;;;;;;10167974;28;92562;-76
2023/03/09 02:26:54;;;;;;;;;;;15.50;57.30;;;;;;10167557;28;93436;-75
2023/03/09 02:31:56;;;;;;;;;;;15.50;57.30;;;;;;10150097;28;93421;-77
2023/03/09 02:36:58;;;;;;;;;;;15.40;57.10;;;;;;10166770;28;93957;-75
2023/03/09 02:42:01;;;;;;;;;;;15.40;57.30;;;;;;10166910;28;93056;-76
2023/03/09 02:47:07;;;;;;;;;;;15.50;57.10;;;;;;10166980;28;93481;-75
2023/03/09 02:52:09;;;;;;;;;;;15.50;57.10;;;;;;10167144;28;94462;-75
2023/03/09 02:57:11;;;;;;;;;;;15.50;57.00;;;;;;10163888;28;95619;-75
2023/03/09 03:02:13;;;;;;;;;;;15.50;57.00;;;;;;10165425;28;94477;-76
2023/03/09 03:07:15;;;;;;;;;;;15.50;56.70;;;;;;10166284;28;93050;-76
2023/03/09 03:12:18;;;;;;;;;;;15.50;56.80;;;;;;10165962;28;92618;-75
2023/03/09 03:17:19;;;;;;;;;;;15.50;56.70;;;;;;10166317;28;94407;-76
2023/03/09 03:22:21;;;;;;;;;;;15.40;56.60;;;;;;10149213;28;93501;-75
2023/03/09 03:27:23;;;;;;;;;;;15.40;56.40;;;;;;10165808;28;94682;-76
2023/03/09 03:32:25;;;;;;;;;;;15.40;56.60;;;;;;10166735;28;93645;-76
2023/03/09 03:37:27;;;;;;;;;;;15.40;56.70;;;;;;10148933;28;92804;-76
2023/03/09 03:42:28;;;;;;;;;;;15.30;56.70;;;;;;10165897;28;94315;-76
2023/03/09 03:47:30;;;;;;;;;;;15.30;56.80;;;;;;10145010;28;95583;-76
2023/03/09 03:52:32;;;;;;;;;;;15.30;56.80;;;;;;10166536;28;93338;-75
2023/03/09 03:57:34;;;;;;;;;;;15.30;56.80;;;;;;10155312;28;94484;-75
2023/03/09 04:02:35;;;;;;;;;;;15.30;56.90;;;;;;10154399;28;94813;-76
2023/03/09 04:07:37;;;;;;;;;;;15.30;56.90;;;;;;10172382;28;95004;-76
2023/03/09 04:12:39;;;;;;;;;;;15.40;56.70;;;;;;10170948;28;93587;-76
2023/03/09 04:17:41;;;;;;;;;;;15.50;56.50;;;;;;10153805;28;93926;-75
2023/03/09 04:22:42;;;;;;;;;;;15.50;56.40;;;;;;10172856;28;93753;-75
2023/03/09 04:27:44;;;;;;;;;;;15.50;56.30;;;;;;10154298;28;93658;-76
2023/03/09 04:32:49;;;;;;;;;;;15.50;56.20;;;;;;10153439;28;92860;-75
2023/03/09 04:37:51;;;;;;;;;;;15.50;56.10;;;;;;10167991;28;96985;-75
2023/03/09 04:42:53;;;;;;;;;;;15.50;56.20;;;;;;10170212;28;93853;-75
2023/03/09 06:04:38;;;;;;;;;;;15.80;55.90;;;;;;10192305;28;92823;-76
2023/03/09 06:09:40;;;;;;;;;;;16.00;55.20;;;;;;10208235;28;92558;-76
2023/03/09 06:14:42;;;;;;;;;;;16.20;55.00;;;;;;10189508;28;93958;-76
2023/03/09 06:19:44;;;;;;;;;;;16.30;54.70;;;;;;10191487;28;93750;-76
2023/03/09 06:24:46;;;;;;;;;;;16.40;54.60;;;;;;10208797;28;94399;-75
2023/03/09 06:29:48;;;;;;;;;;;16.50;54.50;;;;;;10208159;28;92799;-75
2023/03/09 06:34:49;;;;;;;;;;;16.50;54.40;;;;;;10205638;28;95853;-76
2023/03/09 06:39:51;;;;;;;;;;;16.60;54.30;;;;;;10208705;28;94402;-76
2023/03/09 06:44:53;;;;;;;;;;;16.60;54.30;;;;;;10208245;28;94451;-75
2023/03/09 06:49:54;;;;;;;;;;;16.60;54.50;;;;;;10203323;28;93472;-72
2023/03/09 06:54:56;;;;;;;;;;;16.60;55.20;;;;;;10207894;28;94224;-74
2023/03/09 07:00:16;;;;;;;;;;;16.60;56.30;;;;;;10205865;28;94015;-75
2023/03/09 07:05:18;;;;;;;;;;;16.70;57.80;;;;;;10189011;28;95436;-76
2023/03/09 07:10:20;;;;;;;;;;;16.70;57.40;;;;;;10206321;28;91928;-74
2023/03/09 07:15:21;;;;;;;;;;;16.80;57.30;;;;;;10206158;28;93542;-73
2023/03/09 07:20:24;;;;;;;;;;;16.80;57.30;;;;;;10206835;28;94345;-74
2023/03/09 07:25:27;;;;;;;;;;;16.80;56.90;;;;;;10204356;28;96804;-74
2023/03/09 07:30:29;;;;;;;;;;;16.80;56.70;;;;;;10212647;28;94403;-74
2023/03/09 07:35:31;;;;;;;;;;;16.70;56.60;;;;;;10212367;28;93329;-74
2023/03/09 07:40:33;;;;;;;;;;;16.60;56.50;;;;;;10213115;28;93294;-74
2023/03/09 07:45:34;;;;;;;;;;;16.50;56.60;;;;;;10213158;28;92734;-74
2023/03/09 07:50:36;;;;;;;;;;;16.50;56.80;;;;;;10195113;28;94609;-74
2023/03/09 07:55:38;;;;;;;;;;;16.40;56.80;;;;;;10213357;28;94105;-74
2023/03/09 08:00:40;;;;;;;;;;;16.30;56.70;;;;;;10213290;28;92784;-74
2023/03/09 08:05:42;;;;;;;;;;;16.30;56.80;;;;;;10211603;28;94741;-74
2023/03/09 08:10:48;;;;;;;;;;;16.20;56.80;;;;;;10195362;28;94357;-74
2023/03/09 08:15:50;;;;;;;;;;;16.10;57.10;;;;;;10209727;28;96900;-74
2023/03/09 08:20:52;;;;;;;;;;;16.10;56.90;;;;;;10211022;28;92845;-74
2023/03/09 08:25:54;;;;;;;;;;;16.00;56.80;;;;;;10212736;28;94777;-74
2023/03/09 08:30:55;;;;;;;;;;;16.00;56.80;;;;;;10211273;28;94621;-74
2023/03/09 08:35:57;;;;;;;;;;;15.90;56.80;;;;;;10212028;28;95538;-73
2023/03/09 08:40:59;;;;;;;;;;;15.90;56.90;;;;;;10209938;28;94446;-74
2023/03/09 08:46:01;;;;;;;;;;;15.80;56.90;;;;;;10210421;28;93502;-73
2023/03/09 08:51:05;;;;;;;;;;;15.80;56.90;;;;;;10210627;28;92719;-74
2023/03/09 08:56:09;;;;;;;;;;;15.80;56.90;;;;;;10210362;28;94556;-73
2023/03/09 09:01:11;;;;;;;;;;;15.70;56.60;;;;;;10193898;28;93422;-74
2023/03/09 09:06:14;;;;;;;;;;;15.70;56.70;;;;;;10208665;28;95027;-74
2023/03/09 09:11:16;;;;;;;;;;;15.60;56.70;;;;;;10210262;28;93891;-74
2023/03/09 09:16:18;;;;;;;;;;;15.60;56.70;;;;;;10192102;28;94592;-74
2023/03/09 09:21:20;;;;;;;;;;;15.60;56.70;;;;;;10209975;28;93469;-73
2023/03/09 09:26:22;;;;;;;;;;;15.50;56.70;;;;;;10192973;28;93791;-74
2023/03/09 09:31:24;;;;;;;;;;;15.50;56.80;;;;;;10209389;28;94627;-73
2023/03/09 09:36:26;;;;;;;;;;;15.50;56.90;;;;;;10210494;28;94456;-74
2023/03/09 09:41:42;;;;;;;;;;;15.40;56.90;;;;;;10192664;28;92721;-73
2023/03/09 09:46:44;;;;;;;;;;;15.40;56.80;;;;;;10192125;28;94235;-73
2023/03/09 09:51:55;;;;;;;;;;;15.40;57.00;;;;;;10210088;28;93449;-74
2023/03/09 09:57:02;;;;;;;;;;;15.40;56.90;;;;;;10206859;28;96110;-74
2023/03/09 10:02:07;;;;;;;;;;;15.30;56.90;;;;;;10208090;28;94812;-74
2023/03/09 10:07:20;;;;;;;;;;;15.30;57.00;;;;;;10208346;28;94751;-74
2023/03/09 10:12:24;;;;;;;;;;;15.30;56.90;;;;;;10207142;28;114046;-74
2023/03/09 10:17:47;;;;;;;;;;;15.30;56.90;;;;;;10208599;28;94487;-74
2023/03/09 10:22:50;;;;;;;;;;;15.30;56.90;;;;;;10207868;28;94900;-74
2023/03/09 10:27:55;;;;;;;;;;;15.20;56.80;;;;;;10209001;28;93368;-74
2023/03/09 10:33:09;;;;;;;;;;;15.20;56.80;;;;;;10209906;28;92154;-74
2023/03/09 10:38:13;;;;;;;;;;;15.20;56.80;;;;;;10207684;28;92498;-72
2023/03/09 10:43:27;;;;;;;;;;;15.10;56.90;;;;;;10190341;28;93243;-74
2023/03/09 10:48:29;;;;;;;;;;;15.20;57.00;;;;;;10186628;28;95243;-73
2023/03/09 10:53:34;;;;;;;;;;;15.10;57.00;;;;;;10206678;28;94301;-73
2023/03/09 10:58:36;;;;;;;;;;;15.10;57.10;;;;;;10206110;28;94186;-74
2023/03/09 11:03:39;;;;;;;;;;;15.10;57.10;;;;;;10206216;28;94570;-74
2023/03/09 11:08:41;;;;;;;;;;;15.10;57.20;;;;;;10207447;28;93749;-71
2023/03/09 11:14:03;;;;;;;;;;;15.10;57.20;;;;;;10206761;28;95852;-74
2023/03/09 11:19:09;;;;;;;;;;;15.10;57.20;;;;;;10206297;28;94480;-73
2023/03/09 11:24:11;;;;;;;;;;;15.10;57.30;;;;;;10207727;28;92789;-73
2023/03/09 11:29:40;;;;;;;;;;;15.00;57.30;;;;;;10205511;28;93717;-73
2023/03/09 11:34:43;;;;;;;;;;;15.00;57.30;;;;;;10205778;28;94470;-73
2023/03/09 11:39:44;;;;;;;;;;;15.00;57.30;;;;;;10185851;28;95845;-73
2023/03/09 11:44:47;;;;;;;;;;;15.00;57.30;;;;;;10206052;28;93656;-74
2023/03/09 11:49:49;;;;;;;;;;;15.00;57.40;;;;;;10205247;28;94633;-74
2023/03/09 11:54:52;;;;;;;;;;;15.00;57.30;;;;;;10205336;28;94416;-74
2023/03/09 11:59:55;;;;;;;;;;;15.00;57.30;;;;;;10205267;28;93533;-74
2023/03/09 12:04:57;;;;;;;;;;;15.00;57.30;;;;;;10204678;28;93579;-74
2023/03/09 12:10:04;;;;;;;;;;;15.00;57.30;;;;;;10205072;28;93292;-73
2023/03/09 12:15:17;;;;;;;;;;;14.90;57.20;;;;;;10209749;28;93428;-74
2023/03/09 12:20:31;;;;;;;;;;;15.00;57.20;;;;;;10212362;28;94261;-73
2023/03/09 12:25:32;;;;;;;;;;;14.90;57.20;;;;;;10212300;28;93663;-73
2023/03/09 12:30:42;;;;;;;;;;;14.90;57.20;;;;;;10209849;28;94984;-73
2023/03/09 12:35:44;;;;;;;;;;;14.90;57.20;;;;;;10194529;28;94471;-74
2023/03/09 12:40:46;;;;;;;;;;;14.90;57.20;;;;;;10211495;28;94302;-74
2023/03/09 12:45:50;;;;;;;;;;;14.90;57.20;;;;;;10193501;28;93525;-73
2023/03/09 12:51:19;;;;;;;;;;;14.90;57.20;;;;;;10210765;28;93432;-73
2023/03/09 12:56:22;;;;;;;;;;;14.90;57.10;;;;;;10209387;28;94728;-72
2023/03/09 13:01:24;;;;;;;;;;;14.90;57.20;;;;;;10210360;28;94593;-72
2023/03/09 13:06:43;;;;;;;;;;;14.90;57.20;;;;;;10195032;28;93034;-74
2023/03/09 13:11:50;;;;;;;;;;;14.90;57.20;;;;;;10211006;28;92908;-74
2023/03/09 13:16:58;;;;;;;;;;;14.90;57.20;;;;;;10192797;28;94370;-74
2023/03/09 13:22:00;;;;;;;;;;;14.90;57.30;;;;;;10207490;28;96614;-74
2023/03/09 13:27:23;;;;;;;;;;;14.80;57.20;;;;;;10209862;28;94478;-74
2023/03/09 13:32:33;;;;;;;;;;;14.80;57.30;;;;;;10191853;28;93629;-73
2023/03/09 13:37:38;;;;;;;;;;;14.80;57.30;;;;;;10209756;28;94211;-73
2023/03/09 13:42:42;;;;;;;;;;;14.80;57.30;;;;;;10191927;28;93488;-74
2023/03/09 13:47:44;;;;;;;;;;;14.80;57.30;;;;;;10210107;28;93391;-73
2023/03/09 13:53:05;;;;;;;;;;;14.80;57.30;;;;;;10209326;28;92994;-73
2023/03/09 13:58:13;;;;;;;;;;;14.80;57.30;;;;;;10209129;28;92706;-73
2023/03/09 14:03:15;;;;;;;;;;;14.80;57.40;;;;;;10209021;28;94537;-75
2023/03/09 14:08:19;;;;;;;;;;;14.70;57.30;;;;;;10191028;28;94475;-74
2023/03/09 14:13:22;;;;;;;;;;;14.70;57.40;;;;;;10206407;28;96420;-75
2023/03/09 14:18:30;;;;;;;;;;;14.70;58.50;;;;;;10208237;28;93198;-74
2023/03/09 14:23:38;;;;;;;;;;;14.70;57.40;;;;;;10208891;28;94384;-74
2023/03/09 14:28:56;;;;;;;;;;;14.70;57.50;;;;;;10208292;28;93633;-74
2023/03/09 14:33:59;;;;;;;;;;;14.70;57.50;;;;;;10207171;28;94502;-74
2023/03/09 14:39:09;;;;;;;;;;;14.70;57.50;;;;;;10206205;28;93457;-75
2023/03/09 14:44:28;;;;;;;;;;;14.60;57.40;;;;;;10207914;28;93461;-74
2023/03/09 14:49:29;;;;;;;;;;;14.70;57.60;;;;;;10208547;28;92174;-74
2023/03/09 14:54:31;;;;;;;;;;;14.60;57.50;;;;;;10206848;28;93135;-75
2023/03/09 14:59:33;;;;;;;;;;;14.60;57.50;;;;;;10188984;28;94512;-75
2023/03/09 15:04:35;;;;;;;;;;;14.60;57.50;;;;;;10186165;28;96372;-74
2023/03/09 15:09:37;;;;;;;;;;;14.60;57.50;;;;;;10206853;28;93671;-74
2023/03/09 15:14:40;;;;;;;;;;;14.60;57.60;;;;;;10206256;28;93370;-74
2023/03/09 15:19:42;;;;;;;;;;;14.60;57.60;;;;;;10189303;28;94710;-74
2023/03/09 15:24:44;;;;;;;;;;;14.60;57.70;;;;;;10189090;28;93822;-74
2023/03/09 15:29:46;;;;;;;;;;;14.60;57.60;;;;;;10201899;28;93571;-74
2023/03/09 15:34:48;;;;;;;;;;;14.60;57.60;;;;;;10205366;28;94103;-75
2023/03/09 15:39:50;;;;;;;;;;;14.60;57.60;;;;;;10189495;28;93865;-74
2023/03/09 15:44:51;;;;;;;;;;;14.50;57.60;;;;;;10205888;28;92845;-75
2023/03/09 15:49:53;;;;;;;;;;;14.50;57.60;;;;;;10210575;28;94550;-72
2023/03/09 15:54:55;;;;;;;;;;;14.50;57.60;;;;;;10194469;28;96895;-74
2023/03/09 15:59:57;;;;;;;;;;;14.60;57.70;;;;;;10211670;28;93588;-73
2023/03/09 16:04:58;;;;;;;;;;;14.50;57.60;;;;;;10208927;28;93967;-73
2023/03/09 16:10:03;;;;;;;;;;;14.50;57.60;;;;;;10213642;28;94516;-75
2023/03/09 16:15:05;;;;;;;;;;;14.50;57.70;;;;;;10212930;28;94411;-76
2023/03/09 16:20:14;;;;;;;;;;;14.60;57.80;;;;;;10212100;28;94501;-72
2023/03/09 16:25:16;;;;;;;;;;;14.70;57.80;;;;;;10211826;28;94448;-75
2023/03/09 16:30:18;;;;;;;;;;;14.90;57.40;;;;;;10212556;28;92748;-73
2023/03/09 16:35:21;;;;;;;;;;;15.20;57.00;;;;;;10194037;28;93478;-74
2023/03/09 16:40:23;;;;;;;;;;;15.40;56.50;;;;;;10210761;28;94815;-76
2023/03/09 16:45:25;;;;;;;;;;;15.60;56.10;;;;;;10208518;28;94906;-73
2023/03/09 16:50:28;;;;;;;;;;;15.90;55.90;;;;;;10210768;28;94681;-72
2023/03/09 16:55:30;;;;;;;;;;;16.10;55.50;;;;;;10211956;28;94302;-68
2023/03/09 17:00:32;;;;;;;;;;;16.30;55.40;;;;;;10203739;28;93704;-71
2023/03/09 17:05:33;;;;;;;;;;;16.40;55.20;;;;;;10207586;28;93520;-70
2023/03/09 17:10:35;;;;;;;;;;;16.60;55.30;;;;;;10208929;28;94462;-69
2023/03/09 17:15:37;;;;;;;;;;;16.70;58.00;;;;;;10210455;28;93761;-68
2023/03/09 17:20:39;;;;;;;;;;;16.80;60.00;;;;;;10193512;28;94039;-67
2023/03/09 17:25:41;;;;;;;;;;;17.00;58.90;;;;;;10194009;28;93389;-67
2023/03/09 17:30:43;;;;;;;;;;;17.20;59.30;;;;;;10210781;28;93170;-67
2023/03/09 17:35:47;;;;;;;;;;;17.30;59.60;;;;;;10191313;28;96374;-68
2023/03/09 17:40:49;;;;;;;;;;;17.30;59.60;;;;;;10208703;28;93123;-74
2023/03/09 17:46:01;;;;;;;;;;;17.30;59.70;;;;;;10208992;28;93908;-73
2023/03/09 17:51:04;;;;;;;;;;;17.20;60.20;;;;;;10191084;28;93554;-75
2023/03/09 17:56:06;;;;;;;;;;;17.20;60.50;;;;;;10206476;28;95896;-74
2023/03/09 18:01:08;;;;;;;;;;;17.20;60.60;;;;;;10207592;28;93428;-74
2023/03/09 18:06:18;;;;;;;;;;;17.20;60.10;;;;;;10208322;28;94476;-74
2023/03/09 18:11:21;;;;;;;;;;;17.30;60.00;;;;;;10208637;28;93784;-74
2023/03/09 18:16:23;;;;;;;;;;;17.30;60.00;;;;;;10207821;28;94434;-74
2023/03/09 18:21:25;;;;;;;;;;;17.40;59.90;;;;;;10208090;28;94590;-74
2023/03/09 18:26:29;;;;;;;;;;;17.40;59.60;;;;;;10206296;28;95831;-74
2023/03/09 18:31:31;;;;;;;;;;;17.40;59.60;;;;;;10207705;28;93780;-74
2023/03/09 18:36:32;;;;;;;;;;;17.40;59.60;;;;;;10208015;28;94684;-75
2023/03/09 18:41:34;;;;;;;;;;;17.30;59.40;;;;;;10207637;28;94079;-74
2023/03/09 18:46:36;;;;;;;;;;;17.40;59.40;;;;;;10189889;28;94354;-73
2023/03/09 18:51:37;;;;;;;;;;;17.40;59.30;;;;;;10207406;28;94204;-73
2023/03/09 18:56:39;;;;;;;;;;;17.40;59.10;;;;;;10205999;28;93487;-73
2023/03/09 19:01:41;;;;;;;;;;;17.40;58.80;;;;;;10208013;28;93565;-71
2023/03/09 19:06:44;;;;;;;;;;;17.40;58.60;;;;;;10189381;28;94510;-76
2023/03/09 19:11:46;;;;;;;;;;;17.40;58.50;;;;;;10206407;28;94561;-75
2023/03/09 19:16:48;;;;;;;;;;;17.50;58.50;;;;;;10203930;28;95875;-75
2023/03/09 19:21:50;;;;;;;;;;;17.50;58.20;;;;;;10207088;28;93253;-75
2023/03/09 19:26:52;;;;;;;;;;;17.60;58.20;;;;;;10206950;28;94527;-75
2023/03/09 19:31:54;;;;;;;;;;;17.60;58.00;;;;;;10207093;28;94323;-75
2023/03/09 19:36:56;;;;;;;;;;;17.70;57.70;;;;;;10205391;28;93362;-75
2023/03/09 19:41:57;;;;;;;;;;;17.80;57.60;;;;;;10206121;28;93348;-75
2023/03/09 19:46:59;;;;;;;;;;;17.80;57.40;;;;;;10205815;28;93051;-74
2023/03/09 19:52:01;;;;;;;;;;;17.70;57.30;;;;;;10205258;28;94059;-76
2023/03/09 19:57:02;;;;;;;;;;;17.70;57.20;;;;;;10205379;28;94179;-76
2023/03/09 20:02:04;;;;;;;;;;;17.70;57.30;;;;;;10187659;28;93255;-75
2023/03/09 20:07:05;;;;;;;;;;;17.80;57.20;;;;;;10202580;28;95526;-75
2023/03/09 20:12:07;;;;;;;;;;;17.80;57.30;;;;;;10205614;28;93871;-76
2023/03/09 20:17:09;;;;;;;;;;;17.90;57.10;;;;;;10188362;28;93421;-75
2023/03/09 20:22:11;;;;;;;;;;;17.90;56.90;;;;;;10186537;28;93322;-75
2023/03/09 20:27:14;;;;;;;;;;;18.00;56.70;;;;;;10187329;28;93862;-75
2023/03/09 20:32:16;;;;;;;;;;;18.10;56.60;;;;;;10203958;28;93650;-74
2023/03/09 20:37:20;;;;;;;;;;;18.10;56.50;;;;;;10208528;28;94535;-74
2023/03/09 20:42:21;;;;;;;;;;;18.00;56.40;;;;;;10194716;28;92759;-75
2023/03/09 20:47:23;;;;;;;;;;;17.90;56.40;;;;;;10210768;28;94008;-74
2023/03/09 20:52:25;;;;;;;;;;;17.80;56.70;;;;;;10211322;28;94435;-74
2023/03/09 20:57:27;;;;;;;;;;;17.70;56.90;;;;;;10209649;28;96795;-75
2023/03/09 21:02:29;;;;;;;;;;;17.60;57.10;;;;;;10211404;28;94604;-75
2023/03/09 21:07:30;;;;;;;;;;;17.50;57.30;;;;;;10192361;28;94490;-75
2023/03/09 21:12:33;;;;;;;;;;;17.40;57.50;;;;;;10209106;28;93566;-76
2023/03/09 21:17:36;;;;;;;;;;;17.20;57.60;;;;;;10192248;28;93418;-75
2023/03/09 21:22:37;;;;;;;;;;;17.10;57.70;;;;;;10211146;28;94254;-72
2023/03/09 21:27:39;;;;;;;;;;;17.10;59.20;;;;;;10209440;28;94244;-75
2023/03/09 21:32:41;;;;;;;;;;;17.00;58.00;;;;;;10210282;28;92506;-74
2023/03/09 21:37:43;;;;;;;;;;;16.90;58.40;;;;;;10190938;28;93281;-73
2023/03/09 21:42:45;;;;;;;;;;;16.80;58.30;;;;;;10209082;28;93127;-73
2023/03/09 21:47:47;;;;;;;;;;;16.80;58.50;;;;;;10204749;28;97077;-75
2023/03/09 21:52:49;;;;;;;;;;;16.70;58.50;;;;;;10208611;28;93507;-70
2023/03/09 21:57:50;;;;;;;;;;;16.70;58.60;;;;;;10209939;28;94759;-74
2023/03/09 22:02:58;;;;;;;;;;;16.60;58.70;;;;;;10208119;28;94629;-75
2023/03/09 22:07:59;;;;;;;;;;;16.60;58.60;;;;;;10208158;28;95096;-76
2023/03/09 22:13:01;;;;;;;;;;;16.50;58.70;;;;;;10208032;28;93406;-75
2023/03/09 22:18:03;;;;;;;;;;;16.50;58.60;;;;;;10207290;28;93549;-76
2023/03/09 22:23:05;;;;;;;;;;;16.40;58.70;;;;;;10209035;28;92717;-74
2023/03/09 22:28:06;;;;;;;;;;;16.30;58.60;;;;;;10207817;28;94581;-74
2023/03/09 22:33:08;;;;;;;;;;;16.30;58.80;;;;;;10206958;28;94589;-75
2023/03/09 22:38:10;;;;;;;;;;;16.20;58.80;;;;;;10204972;28;95811;-75
2023/03/09 22:43:12;;;;;;;;;;;16.20;58.70;;;;;;10189771;28;92997;-75
2023/03/09 22:48:14;;;;;;;;;;;16.10;58.90;;;;;;10189020;28;93706;-76
2023/03/09 22:53:18;;;;;;;;;;;16.00;58.90;;;;;;10207313;28;93400;-75
2023/03/09 22:58:19;;;;;;;;;;;16.00;58.90;;;;;;10206480;28;93469;-75
2023/03/09 23:03:21;;;;;;;;;;;15.90;58.90;;;;;;10206989;28;93431;-75
2023/03/09 23:08:23;;;;;;;;;;;15.90;58.90;;;;;;10206509;28;93454;-75
2023/03/09 23:13:24;;;;;;;;;;;15.90;58.90;;;;;;10207239;28;93701;-75
2023/03/09 23:18:26;;;;;;;;;;;15.80;58.90;;;;;;10206643;28;93596;-75
2023/03/09 23:23:28;;;;;;;;;;;15.80;59.00;;;;;;10207142;28;93494;-75
2023/03/09 23:28:29;;;;;;;;;;;15.70;58.80;;;;;;10203546;28;97108;-75
2023/03/09 23:33:31;;;;;;;;;;;15.70;58.90;;;;;;10206814;28;94502;-75
2023/03/09 23:38:33;;;;;;;;;;;15.70;58.90;;;;;;10188062;28;93555;-75
2023/03/09 23:43:34;;;;;;;;;;;15.60;58.90;;;;;;10205600;28;94517;-75
2023/03/09 23:48:36;;;;;;;;;;;15.60;58.90;;;;;;10206078;28;94081;-75
2023/03/09 23:53:38;;;;;;;;;;;15.50;58.90;;;;;;10205998;28;94468;-75
2023/03/09 23:58:40;;;;;;;;;;;15.50;59.00;;;;;;10205178;28;94443;-75
